sensor_id;sensor_type;location;lat;lon;timestamp;P1;durP1;ratioP1;P2;durP2;ratioP2
68375;SDS011;55318;52.068;5.188;2023-04-24T00:00:07;2.7;;;0.6;;
68375;SDS011;55318;52.068;5.188;2023-04-24T00:01:45;1.11;;;0.6;;
68375;SDS011;55318;52.068;5.188;2023-04-24T00:04:58;1.3;;;0.7;;
68375;SDS011;55318;52.068;5.188;2023-04-24T00:06:34;1.4;;;0.9;;
68375;SDS011;55318;52.068;5.188;2023-04-24T00:08:11;1.0;;;0.9;;
68375;SDS011;55318;52.068;5.188;2023-04-24T00:09:47;0.7;;;0.7;;
68375;SDS011;55318;52.068;5.188;2023-04-24T00:13:02;1.2;;;0.8;;
68375;SDS011;55318;52.068;5.188;2023-04-24T00:14:38;1.3;;;0.8;;
68375;SDS011;55318;52.068;5.188;2023-04-24T00:16:14;1.4;;;1.0;;
68375;SDS011;55318;52.068;5.188;2023-04-24T00:19:26;2.21;;;0.8;;
68375;SDS011;55318;52.068;5.188;2023-04-24T00:21:04;1.9;;;1.4;;
68375;SDS011;55318;52.068;5.188;2023-04-24T00:22:41;1.4;;;0.8;;
68375;SDS011;55318;52.068;5.188;2023-04-24T00:25:54;0.7;;;0.6;;
68375;SDS011;55318;52.068;5.188;2023-04-24T00:27:30;0.8;;;0.8;;
68375;SDS011;55318;52.068;5.188;2023-04-24T00:29:07;0.6;;;0.6;;
68375;SDS011;55318;52.068;5.188;2023-04-24T00:30:44;0.8;;;0.6;;
68375;SDS011;55318;52.068;5.188;2023-04-24T00:33:57;1.8;;;0.8;;
68375;SDS011;55318;52.068;5.188;2023-04-24T00:35:34;0.9;;;0.9;;
68375;SDS011;55318;52.068;5.188;2023-04-24T00:37:10;1.11;;;1.0;;
68375;SDS011;55318;52.068;5.188;2023-04-24T00:40:22;4.0;;;1.2;;
68375;SDS011;55318;52.068;5.188;2023-04-24T00:41:58;2.0;;;1.0;;
68375;SDS011;55318;52.068;5.188;2023-04-24T00:43:35;4.8;;;1.2;;
68375;SDS011;55318;52.068;5.188;2023-04-24T00:46:49;1.11;;;1.0;;
68375;SDS011;55318;52.068;5.188;2023-04-24T00:48:26;1.5;;;1.3;;
68375;SDS011;55318;52.068;5.188;2023-04-24T00:50:03;2.4;;;1.4;;
68375;SDS011;55318;52.068;5.188;2023-04-24T00:51:42;1.4;;;1.3;;
68375;SDS011;55318;52.068;5.188;2023-04-24T00:54:55;2.21;;;1.3;;
68375;SDS011;55318;52.068;5.188;2023-04-24T00:56:32;1.5;;;1.11;;
68375;SDS011;55318;52.068;5.188;2023-04-24T00:58:10;2.21;;;1.5;;
68375;SDS011;55318;52.068;5.188;2023-04-24T01:01:23;1.4;;;1.11;;
68375;SDS011;55318;52.068;5.188;2023-04-24T01:03:00;1.9;;;1.4;;
68375;SDS011;55318;52.068;5.188;2023-04-24T01:04:40;1.5;;;1.2;;
68375;SDS011;55318;52.068;5.188;2023-04-24T01:06:18;1.8;;;1.5;;
68375;SDS011;55318;52.068;5.188;2023-04-24T01:09:33;1.7;;;1.4;;
68375;SDS011;55318;52.068;5.188;2023-04-24T01:11:11;1.5;;;1.4;;
68375;SDS011;55318;52.068;5.188;2023-04-24T01:12:47;1.7;;;1.6;;
68375;SDS011;55318;52.068;5.188;2023-04-24T01:16:00;2.1;;;1.5;;
68375;SDS011;55318;52.068;5.188;2023-04-24T01:17:39;4.61;;;1.6;;
68375;SDS011;55318;52.068;5.188;2023-04-24T01:19:15;1.4;;;1.3;;
68375;SDS011;55318;52.068;5.188;2023-04-24T01:22:39;2.8;;;1.7;;
68375;SDS011;55318;52.068;5.188;2023-04-24T01:24:16;2.21;;;1.6;;
68375;SDS011;55318;52.068;5.188;2023-04-24T01:25:53;1.5;;;1.2;;
68375;SDS011;55318;52.068;5.188;2023-04-24T01:27:31;1.8;;;1.5;;
68375;SDS011;55318;52.068;5.188;2023-04-24T01:30:45;1.8;;;1.4;;
68375;SDS011;55318;52.068;5.188;2023-04-24T01:32:22;2.21;;;1.4;;
68375;SDS011;55318;52.068;5.188;2023-04-24T01:33:59;2.6;;;1.8;;
68375;SDS011;55318;52.068;5.188;2023-04-24T01:35:35;2.7;;;1.6;;
68375;SDS011;55318;52.068;5.188;2023-04-24T01:38:50;1.6;;;1.5;;
68375;SDS011;55318;52.068;5.188;2023-04-24T01:40:27;1.5;;;1.4;;
68375;SDS011;55318;52.068;5.188;2023-04-24T01:42:04;3.6;;;1.4;;
68375;SDS011;55318;52.068;5.188;2023-04-24T01:45:18;1.9;;;1.3;;
68375;SDS011;55318;52.068;5.188;2023-04-24T01:46:55;2.0;;;1.4;;
68375;SDS011;55318;52.068;5.188;2023-04-24T01:48:31;1.4;;;1.11;;
68375;SDS011;55318;52.068;5.188;2023-04-24T01:51:47;3.4;;;1.5;;
68375;SDS011;55318;52.068;5.188;2023-04-24T01:53:24;1.3;;;1.2;;
68375;SDS011;55318;52.068;5.188;2023-04-24T01:55:01;1.3;;;1.2;;
68375;SDS011;55318;52.068;5.188;2023-04-24T01:56:40;1.8;;;1.3;;
68375;SDS011;55318;52.068;5.188;2023-04-24T01:59:56;1.5;;;1.3;;
68375;SDS011;55318;52.068;5.188;2023-04-24T02:01:33;1.6;;;1.2;;
68375;SDS011;55318;52.068;5.188;2023-04-24T02:03:11;3.2;;;1.5;;
68375;SDS011;55318;52.068;5.188;2023-04-24T02:06:23;1.5;;;1.4;;
68375;SDS011;55318;52.068;5.188;2023-04-24T02:07:59;7.2;;;1.5;;
68375;SDS011;55318;52.068;5.188;2023-04-24T02:09:37;1.5;;;1.2;;
68375;SDS011;55318;52.068;5.188;2023-04-24T02:11:13;2.1;;;1.3;;
68375;SDS011;55318;52.068;5.188;2023-04-24T02:16:02;1.6;;;1.3;;
68375;SDS011;55318;52.068;5.188;2023-04-24T02:17:38;1.6;;;1.2;;
68375;SDS011;55318;52.068;5.188;2023-04-24T02:20:51;1.7;;;1.6;;
68375;SDS011;55318;52.068;5.188;2023-04-24T02:22:29;2.1;;;1.2;;
68375;SDS011;55318;52.068;5.188;2023-04-24T02:24:05;1.3;;;1.11;;
68375;SDS011;55318;52.068;5.188;2023-04-24T02:27:18;1.7;;;1.0;;
68375;SDS011;55318;52.068;5.188;2023-04-24T02:28:55;1.2;;;1.11;;
68375;SDS011;55318;52.068;5.188;2023-04-24T02:30:31;1.5;;;1.3;;
68375;SDS011;55318;52.068;5.188;2023-04-24T02:32:09;2.21;;;1.3;;
68375;SDS011;55318;52.068;5.188;2023-04-24T02:35:21;1.11;;;1.0;;
68375;SDS011;55318;52.068;5.188;2023-04-24T02:36:58;1.3;;;1.2;;
68375;SDS011;55318;52.068;5.188;2023-04-24T02:38:35;2.4;;;0.9;;
68375;SDS011;55318;52.068;5.188;2023-04-24T02:41:48;1.4;;;1.11;;
68375;SDS011;55318;52.068;5.188;2023-04-24T02:43:24;1.3;;;1.11;;
68375;SDS011;55318;52.068;5.188;2023-04-24T02:45:02;1.11;;;1.0;;
68375;SDS011;55318;52.068;5.188;2023-04-24T02:48:16;2.0;;;1.2;;
68375;SDS011;55318;52.068;5.188;2023-04-24T02:49:52;2.1;;;1.5;;
68375;SDS011;55318;52.068;5.188;2023-04-24T02:51:28;3.2;;;1.5;;
68375;SDS011;55318;52.068;5.188;2023-04-24T02:53:05;1.9;;;1.4;;
68375;SDS011;55318;52.068;5.188;2023-04-24T02:56:19;2.5;;;1.3;;
68375;SDS011;55318;52.068;5.188;2023-04-24T02:57:56;2.21;;;1.8;;
68375;SDS011;55318;52.068;5.188;2023-04-24T02:59:32;1.9;;;1.5;;
68375;SDS011;55318;52.068;5.188;2023-04-24T03:02:45;1.9;;;1.6;;
68375;SDS011;55318;52.068;5.188;2023-04-24T03:04:22;2.6;;;1.8;;
68375;SDS011;55318;52.068;5.188;2023-04-24T03:05:59;2.7;;;1.7;;
68375;SDS011;55318;52.068;5.188;2023-04-24T03:07:35;2.4;;;1.6;;
68375;SDS011;55318;52.068;5.188;2023-04-24T03:10:49;3.2;;;2.0;;
68375;SDS011;55318;52.068;5.188;2023-04-24T03:12:26;2.4;;;2.1;;
68375;SDS011;55318;52.068;5.188;2023-04-24T03:14:02;2.31;;;1.6;;
68375;SDS011;55318;52.068;5.188;2023-04-24T03:17:16;2.6;;;1.9;;
68375;SDS011;55318;52.068;5.188;2023-04-24T03:18:53;2.6;;;1.8;;
68375;SDS011;55318;52.068;5.188;2023-04-24T03:20:30;3.5;;;1.9;;
68375;SDS011;55318;52.068;5.188;2023-04-24T03:23:44;2.4;;;2.0;;
68375;SDS011;55318;52.068;5.188;2023-04-24T03:25:20;3.9;;;2.4;;
68375;SDS011;55318;52.068;5.188;2023-04-24T03:26:57;2.6;;;1.8;;
68375;SDS011;55318;52.068;5.188;2023-04-24T03:28:34;3.5;;;1.9;;
68375;SDS011;55318;52.068;5.188;2023-04-24T03:31:49;2.4;;;1.9;;
68375;SDS011;55318;52.068;5.188;2023-04-24T03:33:25;2.8;;;1.7;;
68375;SDS011;55318;52.068;5.188;2023-04-24T03:35:02;3.0;;;2.0;;
68375;SDS011;55318;52.068;5.188;2023-04-24T03:38:15;2.9;;;1.8;;
68375;SDS011;55318;52.068;5.188;2023-04-24T03:39:51;3.4;;;2.1;;
68375;SDS011;55318;52.068;5.188;2023-04-24T03:41:29;2.21;;;1.9;;
68375;SDS011;55318;52.068;5.188;2023-04-24T03:44:41;3.0;;;1.9;;
68375;SDS011;55318;52.068;5.188;2023-04-24T03:46:18;2.4;;;1.7;;
68375;SDS011;55318;52.068;5.188;2023-04-24T03:47:55;2.9;;;1.8;;
68375;SDS011;55318;52.068;5.188;2023-04-24T03:49:32;3.4;;;2.5;;
68375;SDS011;55318;52.068;5.188;2023-04-24T03:52:45;3.5;;;2.31;;
68375;SDS011;55318;52.068;5.188;2023-04-24T03:54:23;2.8;;;2.0;;
68375;SDS011;55318;52.068;5.188;2023-04-24T03:55:59;2.8;;;1.7;;
68375;SDS011;55318;52.068;5.188;2023-04-24T03:59:12;1.9;;;1.6;;
68375;SDS011;55318;52.068;5.188;2023-04-24T04:00:48;4.91;;;1.4;;
68375;SDS011;55318;52.068;5.188;2023-04-24T04:02:25;1.8;;;1.6;;
68375;SDS011;55318;52.068;5.188;2023-04-24T04:05:37;4.0;;;2.1;;
68375;SDS011;55318;52.068;5.188;2023-04-24T04:07:15;1.9;;;1.4;;
68375;SDS011;55318;52.068;5.188;2023-04-24T04:08:52;2.6;;;1.5;;
68375;SDS011;55318;52.068;5.188;2023-04-24T04:10:29;2.5;;;1.3;;
68375;SDS011;55318;52.068;5.188;2023-04-24T04:13:43;1.4;;;1.2;;
68375;SDS011;55318;52.068;5.188;2023-04-24T04:15:20;1.5;;;1.4;;
68375;SDS011;55318;52.068;5.188;2023-04-24T04:16:57;2.8;;;1.3;;
68375;SDS011;55318;52.068;5.188;2023-04-24T04:20:11;2.6;;;1.7;;
68375;SDS011;55318;52.068;5.188;2023-04-24T04:21:47;2.31;;;1.5;;
68375;SDS011;55318;52.068;5.188;2023-04-24T04:23:23;2.1;;;1.8;;
68375;SDS011;55318;52.068;5.188;2023-04-24T04:24:59;5.11;;;1.4;;
68375;SDS011;55318;52.068;5.188;2023-04-24T04:28:14;1.6;;;1.5;;
68375;SDS011;55318;52.068;5.188;2023-04-24T04:29:51;2.0;;;1.3;;
68375;SDS011;55318;52.068;5.188;2023-04-24T04:31:27;2.21;;;1.5;;
68375;SDS011;55318;52.068;5.188;2023-04-24T04:34:39;2.5;;;1.7;;
68375;SDS011;55318;52.068;5.188;2023-04-24T04:36:15;2.4;;;1.11;;
68375;SDS011;55318;52.068;5.188;2023-04-24T04:37:51;4.7;;;1.3;;
68375;SDS011;55318;52.068;5.188;2023-04-24T04:41:04;1.6;;;1.3;;
68375;SDS011;55318;52.068;5.188;2023-04-24T04:42:40;2.7;;;1.3;;
68375;SDS011;55318;52.068;5.188;2023-04-24T04:44:16;1.6;;;1.5;;
68375;SDS011;55318;52.068;5.188;2023-04-24T04:47:28;3.0;;;1.7;;
68375;SDS011;55318;52.068;5.188;2023-04-24T04:49:04;3.0;;;1.8;;
68375;SDS011;55318;52.068;5.188;2023-04-24T04:50:40;2.31;;;1.8;;
68375;SDS011;55318;52.068;5.188;2023-04-24T04:52:16;3.5;;;1.8;;
68375;SDS011;55318;52.068;5.188;2023-04-24T04:55:30;3.6;;;2.6;;
68375;SDS011;55318;52.068;5.188;2023-04-24T04:57:06;2.4;;;2.1;;
68375;SDS011;55318;52.068;5.188;2023-04-24T04:58:42;3.3;;;2.1;;
68375;SDS011;55318;52.068;5.188;2023-04-24T05:01:55;3.2;;;2.0;;
68375;SDS011;55318;52.068;5.188;2023-04-24T05:03:31;3.1;;;2.0;;
68375;SDS011;55318;52.068;5.188;2023-04-24T05:05:07;3.1;;;2.0;;
68375;SDS011;55318;52.068;5.188;2023-04-24T05:08:21;2.1;;;1.8;;
68375;SDS011;55318;52.068;5.188;2023-04-24T05:09:57;2.7;;;1.7;;
68375;SDS011;55318;52.068;5.188;2023-04-24T05:11:33;4.1;;;2.31;;
68375;SDS011;55318;52.068;5.188;2023-04-24T05:13:09;4.5;;;2.31;;
68375;SDS011;55318;52.068;5.188;2023-04-24T05:16:21;3.2;;;1.9;;
68375;SDS011;55318;52.068;5.188;2023-04-24T05:17:57;2.7;;;2.21;;
68375;SDS011;55318;52.068;5.188;2023-04-24T05:19:34;2.9;;;2.0;;
68375;SDS011;55318;52.068;5.188;2023-04-24T05:22:46;3.3;;;1.7;;
68375;SDS011;55318;52.068;5.188;2023-04-24T05:24:23;3.0;;;1.8;;
68375;SDS011;55318;52.068;5.188;2023-04-24T05:25:59;3.8;;;1.6;;
68375;SDS011;55318;52.068;5.188;2023-04-24T05:29:12;2.9;;;1.5;;
68375;SDS011;55318;52.068;5.188;2023-04-24T05:30:48;1.3;;;0.9;;
68375;SDS011;55318;52.068;5.188;2023-04-24T05:32:24;0.9;;;0.8;;
68375;SDS011;55318;52.068;5.188;2023-04-24T05:35:36;1.11;;;0.8;;
68375;SDS011;55318;52.068;5.188;2023-04-24T05:37:13;2.31;;;0.9;;
68375;SDS011;55318;52.068;5.188;2023-04-24T05:38:49;0.6;;;0.5;;
68375;SDS011;55318;52.068;5.188;2023-04-24T05:40:25;0.3;;;0.2;;
68375;SDS011;55318;52.068;5.188;2023-04-24T05:43:38;0.5;;;0.3;;
68375;SDS011;55318;52.068;5.188;2023-04-24T05:45:14;1.8;;;0.5;;
68375;SDS011;55318;52.068;5.188;2023-04-24T05:46:50;0.4;;;0.4;;
68375;SDS011;55318;52.068;5.188;2023-04-24T05:50:03;0.2;;;0.2;;
68375;SDS011;55318;52.068;5.188;2023-04-24T05:51:41;0.1;;;0.1;;
68375;SDS011;55318;52.068;5.188;2023-04-24T05:53:17;1.0;;;0.3;;
68375;SDS011;55318;52.068;5.188;2023-04-24T05:56:29;0.3;;;0.3;;
68375;SDS011;55318;52.068;5.188;2023-04-24T05:58:06;0.2;;;0.2;;
68375;SDS011;55318;52.068;5.188;2023-04-24T05:59:42;0.3;;;0.3;;
68375;SDS011;55318;52.068;5.188;2023-04-24T06:01:18;0.5;;;0.4;;
68375;SDS011;55318;52.068;5.188;2023-04-24T06:04:31;0.8;;;0.5;;
68375;SDS011;55318;52.068;5.188;2023-04-24T06:06:08;0.6;;;0.6;;
68375;SDS011;55318;52.068;5.188;2023-04-24T06:07:44;1.11;;;0.4;;
68375;SDS011;55318;52.068;5.188;2023-04-24T06:10:56;3.8;;;0.6;;
68375;SDS011;55318;52.068;5.188;2023-04-24T06:12:32;1.6;;;0.7;;
68375;SDS011;55318;52.068;5.188;2023-04-24T06:14:09;0.9;;;0.6;;
68375;SDS011;55318;52.068;5.188;2023-04-24T06:17:21;1.11;;;0.6;;
68375;SDS011;55318;52.068;5.188;2023-04-24T06:18:57;0.7;;;0.7;;
68375;SDS011;55318;52.068;5.188;2023-04-24T06:20:33;2.31;;;1.0;;
68375;SDS011;55318;52.068;5.188;2023-04-24T06:22:09;1.4;;;1.0;;
68375;SDS011;55318;52.068;5.188;2023-04-24T06:25:24;1.6;;;0.9;;
68375;SDS011;55318;52.068;5.188;2023-04-24T06:27:01;2.6;;;1.3;;
68375;SDS011;55318;52.068;5.188;2023-04-24T06:28:37;1.7;;;1.6;;
68375;SDS011;55318;52.068;5.188;2023-04-24T06:31:50;2.31;;;1.6;;
68375;SDS011;55318;52.068;5.188;2023-04-24T06:33:26;3.9;;;2.0;;
68375;SDS011;55318;52.068;5.188;2023-04-24T06:35:02;4.1;;;2.4;;
68375;SDS011;55318;52.068;5.188;2023-04-24T06:38:16;3.9;;;2.6;;
68375;SDS011;55318;52.068;5.188;2023-04-24T06:39:52;4.91;;;2.4;;
68375;SDS011;55318;52.068;5.188;2023-04-24T06:41:28;5.7;;;3.0;;
68375;SDS011;55318;52.068;5.188;2023-04-24T06:43:04;6.9;;;3.3;;
68375;SDS011;55318;52.068;5.188;2023-04-24T06:46:16;6.8;;;3.1;;
68375;SDS011;55318;52.068;5.188;2023-04-24T06:47:52;6.1;;;3.1;;
68375;SDS011;55318;52.068;5.188;2023-04-24T06:49:28;4.2;;;3.0;;
68375;SDS011;55318;52.068;5.188;2023-04-24T06:52:41;5.6;;;3.7;;
68375;SDS011;55318;52.068;5.188;2023-04-24T06:54:17;7.9;;;3.8;;
68375;SDS011;55318;52.068;5.188;2023-04-24T06:55:53;9.81;;;3.5;;
68375;SDS011;55318;52.068;5.188;2023-04-24T06:59:06;5.9;;;3.7;;
68375;SDS011;55318;52.068;5.188;2023-04-24T07:00:42;7.4;;;3.7;;
68375;SDS011;55318;52.068;5.188;2023-04-24T07:02:18;8.9;;;3.9;;
68375;SDS011;55318;52.068;5.188;2023-04-24T07:05:31;6.9;;;3.4;;
68375;SDS011;55318;52.068;5.188;2023-04-24T07:07:07;11.1;;;4.1;;
68375;SDS011;55318;52.068;5.188;2023-04-24T07:08:43;11.1;;;4.1;;
68375;SDS011;55318;52.068;5.188;2023-04-24T07:10:19;9.21;;;3.8;;
68375;SDS011;55318;52.068;5.188;2023-04-24T07:13:31;7.0;;;3.4;;
68375;SDS011;55318;52.068;5.188;2023-04-24T07:15:08;9.5;;;3.6;;
68375;SDS011;55318;52.068;5.188;2023-04-24T07:16:45;6.9;;;3.4;;
68375;SDS011;55318;52.068;5.188;2023-04-24T07:19:58;6.2;;;3.6;;
68375;SDS011;55318;52.068;5.188;2023-04-24T07:21:34;10.1;;;4.3;;
68375;SDS011;55318;52.068;5.188;2023-04-24T07:23:10;6.1;;;3.8;;
68375;SDS011;55318;52.068;5.188;2023-04-24T07:26:22;6.9;;;3.6;;
68375;SDS011;55318;52.068;5.188;2023-04-24T07:27:59;6.1;;;2.9;;
68375;SDS011;55318;52.068;5.188;2023-04-24T07:29:35;6.7;;;3.2;;
68375;SDS011;55318;52.068;5.188;2023-04-24T07:31:13;6.7;;;4.0;;
68375;SDS011;55318;52.068;5.188;2023-04-24T07:34:25;10.7;;;3.3;;
68375;SDS011;55318;52.068;5.188;2023-04-24T07:36:01;9.71;;;3.9;;
68375;SDS011;55318;52.068;5.188;2023-04-24T07:37:37;5.3;;;3.2;;
68375;SDS011;55318;52.068;5.188;2023-04-24T07:40:51;7.0;;;3.2;;
68375;SDS011;55318;52.068;5.188;2023-04-24T07:42:28;5.5;;;3.0;;
68375;SDS011;55318;52.068;5.188;2023-04-24T07:44:04;10.5;;;3.5;;
68375;SDS011;55318;52.068;5.188;2023-04-24T07:47:16;7.0;;;3.0;;
68375;SDS011;55318;52.068;5.188;2023-04-24T07:48:52;6.6;;;3.2;;
68375;SDS011;55318;52.068;5.188;2023-04-24T07:50:28;15.4;;;3.2;;
68375;SDS011;55318;52.068;5.188;2023-04-24T07:53:42;8.2;;;2.9;;
68375;SDS011;55318;52.068;5.188;2023-04-24T07:55:19;7.7;;;3.1;;
68375;SDS011;55318;52.068;5.188;2023-04-24T07:56:56;13.3;;;2.9;;
68375;SDS011;55318;52.068;5.188;2023-04-24T07:58:32;11.7;;;3.3;;
68375;SDS011;55318;52.068;5.188;2023-04-24T08:01:45;10.7;;;3.7;;
68375;SDS011;55318;52.068;5.188;2023-04-24T08:03:21;7.4;;;3.4;;
68375;SDS011;55318;52.068;5.188;2023-04-24T08:04:57;8.81;;;2.6;;
68375;SDS011;55318;52.068;5.188;2023-04-24T08:08:10;7.6;;;3.3;;
68375;SDS011;55318;52.068;5.188;2023-04-24T08:09:46;7.7;;;1.9;;
68375;SDS011;55318;52.068;5.188;2023-04-24T08:11:22;6.5;;;3.0;;
68375;SDS011;55318;52.068;5.188;2023-04-24T08:14:35;7.0;;;2.9;;
68375;SDS011;55318;52.068;5.188;2023-04-24T08:16:11;8.31;;;2.7;;
68375;SDS011;55318;52.068;5.188;2023-04-24T08:17:47;7.5;;;2.21;;
68375;SDS011;55318;52.068;5.188;2023-04-24T08:19:24;10.4;;;2.7;;
68375;SDS011;55318;52.068;5.188;2023-04-24T08:22:36;5.2;;;2.21;;
68375;SDS011;55318;52.068;5.188;2023-04-24T08:24:12;7.3;;;2.31;;
68375;SDS011;55318;52.068;5.188;2023-04-24T08:25:48;8.71;;;2.1;;
68375;SDS011;55318;52.068;5.188;2023-04-24T08:29:01;6.0;;;2.0;;
68375;SDS011;55318;52.068;5.188;2023-04-24T08:30:38;2.8;;;1.2;;
68375;SDS011;55318;52.068;5.188;2023-04-24T08:32:15;2.8;;;1.4;;
68375;SDS011;55318;52.068;5.188;2023-04-24T08:35:27;4.7;;;2.0;;
68375;SDS011;55318;52.068;5.188;2023-04-24T08:37:03;4.7;;;2.0;;
68375;SDS011;55318;52.068;5.188;2023-04-24T08:38:39;4.5;;;1.9;;
68375;SDS011;55318;52.068;5.188;2023-04-24T08:40:15;5.3;;;1.5;;
68375;SDS011;55318;52.068;5.188;2023-04-24T08:43:29;4.91;;;1.5;;
68375;SDS011;55318;52.068;5.188;2023-04-24T08:45:09;3.9;;;1.9;;
68375;SDS011;55318;52.068;5.188;2023-04-24T08:46:47;4.8;;;1.7;;
68375;SDS011;55318;52.068;5.188;2023-04-24T08:50:02;7.8;;;1.7;;
68375;SDS011;55318;52.068;5.188;2023-04-24T08:51:38;4.2;;;1.7;;
68375;SDS011;55318;52.068;5.188;2023-04-24T08:53:15;4.3;;;1.4;;
68375;SDS011;55318;52.068;5.188;2023-04-24T08:54:53;6.1;;;1.9;;
68375;SDS011;55318;52.068;5.188;2023-04-24T08:58:10;5.11;;;1.6;;
68375;SDS011;55318;52.068;5.188;2023-04-24T08:59:46;2.9;;;1.6;;
68375;SDS011;55318;52.068;5.188;2023-04-24T09:01:22;5.5;;;1.6;;
68375;SDS011;55318;52.068;5.188;2023-04-24T09:04:40;5.5;;;1.9;;
68375;SDS011;55318;52.068;5.188;2023-04-24T09:06:18;8.1;;;2.5;;
68375;SDS011;55318;52.068;5.188;2023-04-24T09:07:57;8.81;;;1.7;;
68375;SDS011;55318;52.068;5.188;2023-04-24T09:09:37;7.8;;;2.1;;
68375;SDS011;55318;52.068;5.188;2023-04-24T09:12:52;3.4;;;1.8;;
68375;SDS011;55318;52.068;5.188;2023-04-24T09:14:29;5.9;;;1.7;;
68375;SDS011;55318;52.068;5.188;2023-04-24T09:16:06;6.9;;;1.6;;
68375;SDS011;55318;52.068;5.188;2023-04-24T09:19:19;3.0;;;1.2;;
68375;SDS011;55318;52.068;5.188;2023-04-24T09:20:57;5.0;;;1.6;;
68375;SDS011;55318;52.068;5.188;2023-04-24T09:22:34;12.4;;;1.8;;
68375;SDS011;55318;52.068;5.188;2023-04-24T09:24:14;1.5;;;0.9;;
68375;SDS011;55318;52.068;5.188;2023-04-24T09:27:31;5.2;;;1.8;;
68375;SDS011;55318;52.068;5.188;2023-04-24T09:29:08;4.3;;;1.2;;
68375;SDS011;55318;52.068;5.188;2023-04-24T09:30:54;5.8;;;1.9;;
68375;SDS011;55318;52.068;5.188;2023-04-24T09:32:38;5.11;;;1.11;;
68375;SDS011;55318;52.068;5.188;2023-04-24T09:35:57;8.71;;;2.5;;
68375;SDS011;55318;52.068;5.188;2023-04-24T09:37:35;5.5;;;2.31;;
68375;SDS011;55318;52.068;5.188;2023-04-24T09:39:12;2.5;;;1.3;;
68375;SDS011;55318;52.068;5.188;2023-04-24T09:42:28;4.7;;;1.7;;
68375;SDS011;55318;52.068;5.188;2023-04-24T09:44:10;1.5;;;1.0;;
68375;SDS011;55318;52.068;5.188;2023-04-24T09:45:48;3.3;;;1.4;;
68375;SDS011;55318;52.068;5.188;2023-04-24T09:47:24;3.2;;;1.3;;
68375;SDS011;55318;52.068;5.188;2023-04-24T09:50:45;2.5;;;1.11;;
68375;SDS011;55318;52.068;5.188;2023-04-24T09:52:22;2.1;;;1.4;;
68375;SDS011;55318;52.068;5.188;2023-04-24T09:53:58;3.1;;;0.9;;
68375;SDS011;55318;52.068;5.188;2023-04-24T09:55:36;5.2;;;1.11;;
68375;SDS011;55318;52.068;5.188;2023-04-24T09:58:51;4.3;;;1.8;;
68375;SDS011;55318;52.068;5.188;2023-04-24T10:00:28;1.5;;;1.11;;
68375;SDS011;55318;52.068;5.188;2023-04-24T10:02:15;3.0;;;1.6;;
68375;SDS011;55318;52.068;5.188;2023-04-24T10:05:29;2.9;;;0.9;;
68375;SDS011;55318;52.068;5.188;2023-04-24T10:07:07;1.2;;;0.8;;
68375;SDS011;55318;52.068;5.188;2023-04-24T10:08:43;2.1;;;1.2;;
68375;SDS011;55318;52.068;5.188;2023-04-24T10:10:20;2.0;;;1.3;;
68375;SDS011;55318;52.068;5.188;2023-04-24T10:13:35;2.31;;;0.8;;
68375;SDS011;55318;52.068;5.188;2023-04-24T10:15:11;3.1;;;0.8;;
68375;SDS011;55318;52.068;5.188;2023-04-24T10:16:49;1.5;;;0.7;;
68375;SDS011;55318;52.068;5.188;2023-04-24T10:20:06;3.3;;;0.4;;
68375;SDS011;55318;52.068;5.188;2023-04-24T10:21:42;1.11;;;0.7;;
68375;SDS011;55318;52.068;5.188;2023-04-24T10:23:20;2.31;;;0.4;;
68375;SDS011;55318;52.068;5.188;2023-04-24T10:24:57;1.3;;;0.4;;
68375;SDS011;55318;52.068;5.188;2023-04-24T10:28:11;2.6;;;0.6;;
68375;SDS011;55318;52.068;5.188;2023-04-24T10:29:48;1.3;;;0.7;;
68375;SDS011;55318;52.068;5.188;2023-04-24T10:31:31;2.0;;;0.6;;
68375;SDS011;55318;52.068;5.188;2023-04-24T10:34:44;2.9;;;0.8;;
68375;SDS011;55318;52.068;5.188;2023-04-24T10:36:21;2.6;;;0.6;;
68375;SDS011;55318;52.068;5.188;2023-04-24T10:37:59;1.6;;;0.6;;
68375;SDS011;55318;52.068;5.188;2023-04-24T10:39:41;3.1;;;0.6;;
68375;SDS011;55318;52.068;5.188;2023-04-24T10:42:54;0.9;;;0.5;;
68375;SDS011;55318;52.068;5.188;2023-04-24T10:44:35;1.2;;;0.5;;
68375;SDS011;55318;52.068;5.188;2023-04-24T10:46:16;1.0;;;0.6;;
68375;SDS011;55318;52.068;5.188;2023-04-24T10:47:57;0.3;;;0.3;;
68375;SDS011;55318;52.068;5.188;2023-04-24T10:51:12;1.8;;;1.0;;
68375;SDS011;55318;52.068;5.188;2023-04-24T10:52:48;1.9;;;0.2;;
68375;SDS011;55318;52.068;5.188;2023-04-24T10:54:25;0.3;;;0.3;;
68375;SDS011;55318;52.068;5.188;2023-04-24T10:58:00;0.5;;;0.3;;
68375;SDS011;55318;52.068;5.188;2023-04-24T10:59:38;0.7;;;0.5;;
68375;SDS011;55318;52.068;5.188;2023-04-24T11:01:30;3.6;;;0.7;;
68375;SDS011;55318;52.068;5.188;2023-04-24T11:03:22;1.9;;;1.0;;
68375;SDS011;55318;52.068;5.188;2023-04-24T11:05:02;5.0;;;1.2;;
68375;SDS011;55318;52.068;5.188;2023-04-24T11:08:22;4.8;;;0.5;;
68375;SDS011;55318;52.068;5.188;2023-04-24T11:10:00;1.3;;;0.6;;
68375;SDS011;55318;52.068;5.188;2023-04-24T11:11:36;2.4;;;1.3;;
68375;SDS011;55318;52.068;5.188;2023-04-24T11:13:15;2.1;;;0.6;;
68375;SDS011;55318;52.068;5.188;2023-04-24T11:16:43;4.5;;;0.6;;
68375;SDS011;55318;52.068;5.188;2023-04-24T11:18:36;1.5;;;0.4;;
68375;SDS011;55318;52.068;5.188;2023-04-24T11:20:16;1.4;;;0.5;;
68375;SDS011;55318;52.068;5.188;2023-04-24T11:21:54;0.9;;;0.5;;
68375;SDS011;55318;52.068;5.188;2023-04-24T11:23:35;0.8;;;0.4;;
68375;SDS011;55318;52.068;5.188;2023-04-24T11:26:47;1.9;;;0.6;;
68375;SDS011;55318;52.068;5.188;2023-04-24T11:28:23;1.5;;;0.7;;
68375;SDS011;55318;52.068;5.188;2023-04-24T11:30:00;1.2;;;0.9;;
68375;SDS011;55318;52.068;5.188;2023-04-24T11:33:16;0.8;;;0.5;;
68375;SDS011;55318;52.068;5.188;2023-04-24T11:34:57;0.9;;;0.6;;
68375;SDS011;55318;52.068;5.188;2023-04-24T11:36:34;0.6;;;0.6;;
68375;SDS011;55318;52.068;5.188;2023-04-24T11:38:11;0.6;;;0.3;;
68375;SDS011;55318;52.068;5.188;2023-04-24T11:41:28;1.5;;;0.3;;
68375;SDS011;55318;52.068;5.188;2023-04-24T11:43:06;0.6;;;0.2;;
68375;SDS011;55318;52.068;5.188;2023-04-24T11:44:42;1.4;;;0.4;;
68375;SDS011;55318;52.068;5.188;2023-04-24T11:47:56;1.0;;;0.3;;
68375;SDS011;55318;52.068;5.188;2023-04-24T11:49:33;0.4;;;0.2;;
68375;SDS011;55318;52.068;5.188;2023-04-24T11:51:12;1.2;;;0.3;;
68375;SDS011;55318;52.068;5.188;2023-04-24T11:52:49;1.4;;;0.5;;
68375;SDS011;55318;52.068;5.188;2023-04-24T11:56:02;2.4;;;0.9;;
68375;SDS011;55318;52.068;5.188;2023-04-24T11:57:39;3.5;;;0.8;;
68375;SDS011;55318;52.068;5.188;2023-04-24T11:59:17;2.6;;;0.4;;
68375;SDS011;55318;52.068;5.188;2023-04-24T12:02:32;2.21;;;0.5;;
68375;SDS011;55318;52.068;5.188;2023-04-24T12:04:08;1.8;;;0.6;;
68375;SDS011;55318;52.068;5.188;2023-04-24T12:05:44;2.31;;;1.11;;
68375;SDS011;55318;52.068;5.188;2023-04-24T12:07:21;3.3;;;1.2;;
68375;SDS011;55318;52.068;5.188;2023-04-24T12:10:35;2.21;;;0.6;;
68375;SDS011;55318;52.068;5.188;2023-04-24T12:12:11;3.5;;;0.7;;
68375;SDS011;55318;52.068;5.188;2023-04-24T12:13:48;0.5;;;0.5;;
68375;SDS011;55318;52.068;5.188;2023-04-24T12:17:02;2.1;;;0.7;;
68375;SDS011;55318;52.068;5.188;2023-04-24T12:18:42;1.6;;;1.0;;
68375;SDS011;55318;52.068;5.188;2023-04-24T12:20:23;2.0;;;0.5;;
68375;SDS011;55318;52.068;5.188;2023-04-24T12:22:01;1.6;;;0.9;;
68375;SDS011;55318;52.068;5.188;2023-04-24T12:25:18;1.3;;;0.7;;
68375;SDS011;55318;52.068;5.188;2023-04-24T12:26:56;3.9;;;1.0;;
68375;SDS011;55318;52.068;5.188;2023-04-24T12:28:36;2.21;;;0.8;;
68375;SDS011;55318;52.068;5.188;2023-04-24T12:31:51;1.9;;;1.0;;
68375;SDS011;55318;52.068;5.188;2023-04-24T12:33:27;3.3;;;0.7;;
68375;SDS011;55318;52.068;5.188;2023-04-24T12:35:09;1.7;;;1.0;;
68375;SDS011;55318;52.068;5.188;2023-04-24T12:36:45;1.7;;;0.6;;
68375;SDS011;55318;52.068;5.188;2023-04-24T12:40:02;6.1;;;1.5;;
68375;SDS011;55318;52.068;5.188;2023-04-24T12:43:27;3.8;;;1.2;;
68375;SDS011;55318;52.068;5.188;2023-04-24T12:45:04;4.0;;;1.11;;
68375;SDS011;55318;52.068;5.188;2023-04-24T12:48:18;2.5;;;1.11;;
68375;SDS011;55318;52.068;5.188;2023-04-24T12:49:54;3.5;;;0.9;;
68375;SDS011;55318;52.068;5.188;2023-04-24T12:51:30;1.5;;;0.9;;
68375;SDS011;55318;52.068;5.188;2023-04-24T12:54:43;3.4;;;1.4;;
68375;SDS011;55318;52.068;5.188;2023-04-24T12:56:21;1.8;;;1.2;;
68375;SDS011;55318;52.068;5.188;2023-04-24T12:57:57;3.3;;;1.8;;
68375;SDS011;55318;52.068;5.188;2023-04-24T13:01:09;2.9;;;1.11;;